Colony, Wyoming
Current Conditions -  °F | °C
As of 4:15 PM on Wednesday 17 Dec 2014 (Local Time) from KSPF Reporting Station
Haze Haze  
Wind Chill: 19°   Ceiling: 300
Heat Index: 19°   Visibility: 2mi
Dew Point: 18°   Wind: 0mph
Humidity: 93%   Direction: NA
Pressure: 29.98"   Gusts: NA
Location:  44.87°N, 104.15°W
Report Text: KSPF 172315Z AUTO 00000KT 2SM BR OVC003 M07/M08 A2998 RMK AO2
Loading
Personal Weather Stations






























Interactive Weather Map New forecast layout! Learn more

10-Day Weather Forecast

Advertisements
Track Severe Weather on mobile